createdAt,value
2019-02-12T00:01:30.616Z,0.80
2019-02-12T00:04:01.140Z,0.80
2019-02-12T00:06:31.653Z,0.80
2019-02-12T00:09:02.167Z,0.70
2019-02-12T00:11:32.749Z,0.80
2019-02-12T00:14:03.291Z,0.70
2019-02-12T00:16:33.777Z,0.60
2019-02-12T00:19:04.297Z,0.60
2019-02-12T00:21:34.831Z,0.60
2019-02-12T00:24:05.334Z,0.60
2019-02-12T00:26:36.164Z,0.60
2019-02-12T00:29:06.723Z,0.60
2019-02-12T00:31:37.263Z,0.60
2019-02-12T00:34:07.755Z,0.60
2019-02-12T00:36:38.308Z,0.60
2019-02-12T00:39:09.735Z,0.70
2019-02-12T00:41:40.260Z,0.60
2019-02-12T00:44:10.820Z,0.60
2019-02-12T00:46:41.345Z,0.60
2019-02-12T00:49:11.865Z,0.60
2019-02-12T00:51:42.387Z,0.60
2019-02-12T00:54:12.939Z,0.60
2019-02-12T00:56:43.481Z,0.60
2019-02-12T00:59:13.968Z,0.60
2019-02-12T01:01:44.540Z,0.60
2019-02-12T01:04:15.037Z,0.70
2019-02-12T01:06:45.580Z,0.60
2019-02-12T01:09:18.018Z,0.60
2019-02-12T01:11:48.537Z,0.60
2019-02-12T01:14:19.143Z,0.50
2019-02-12T01:16:53.364Z,0.50
2019-02-12T01:19:23.897Z,0.40
2019-02-12T01:21:54.416Z,0.40
2019-02-12T01:24:24.956Z,0.40
2019-02-12T01:26:55.475Z,0.30
2019-02-12T01:29:26.256Z,0.30
2019-02-12T01:31:56.782Z,0.30
2019-02-12T01:34:28.536Z,0.30
2019-02-12T01:36:59.146Z,0.30
2019-02-12T01:39:29.639Z,0.30
2019-02-12T01:42:00.197Z,0.30
2019-02-12T01:44:30.817Z,0.20
2019-02-12T01:47:01.308Z,0.30
2019-02-12T01:49:31.880Z,0.20
2019-02-12T01:52:02.394Z,0.30
2019-02-12T01:54:32.960Z,0.30
2019-02-12T01:57:03.459Z,0.30
2019-02-12T01:59:34.015Z,0.30
2019-02-12T02:02:04.593Z,0.30
2019-02-12T02:04:35.321Z,0.30
2019-02-12T02:07:06.063Z,0.40
2019-02-12T02:09:36.571Z,0.40
2019-02-12T02:12:10.500Z,0.40
2019-02-12T02:14:41.517Z,0.40
2019-02-12T02:17:13.631Z,0.40
2019-02-12T02:19:44.239Z,0.40
2019-02-12T02:22:15.303Z,0.30
2019-02-12T02:24:45.804Z,0.30
2019-02-12T02:27:16.316Z,0.30
2019-02-12T02:29:47.036Z,0.40
2019-02-12T02:32:17.659Z,0.40
2019-02-12T02:34:48.268Z,0.40
2019-02-12T02:37:18.891Z,0.40
2019-02-12T02:39:49.518Z,0.40
2019-02-12T02:42:20.101Z,0.30
2019-02-12T02:44:50.659Z,0.20
2019-02-12T02:47:21.141Z,0.10
2019-02-12T02:49:51.687Z,0.00
2019-02-12T02:52:22.398Z,0.00
2019-02-12T02:54:53.024Z,0.00
2019-02-12T02:57:23.665Z,0.00
2019-02-12T02:59:54.120Z,0.00
2019-02-12T03:02:24.727Z,0.00
2019-02-12T03:04:55.255Z,0.00
2019-02-12T03:07:25.768Z,0.00
2019-02-12T03:09:56.348Z,0.00
2019-02-12T03:12:26.869Z,0.00
2019-02-12T03:14:57.448Z,0.00
2019-02-12T03:17:27.964Z,0.00
2019-02-12T03:19:58.633Z,0.00
2019-02-12T03:22:29.160Z,0.00
2019-02-12T03:24:59.757Z,0.00
2019-02-12T03:27:30.435Z,0.00
2019-02-12T03:30:01.049Z,0.00
2019-02-12T03:32:31.652Z,0.00
2019-02-12T03:35:02.187Z,0.10
2019-02-12T03:37:32.805Z,0.00
2019-02-12T03:40:03.379Z,0.10
2019-02-12T03:42:33.896Z,0.10
2019-02-12T03:45:04.865Z,0.10
2019-02-12T03:47:35.359Z,0.00
2019-02-12T03:50:06.816Z,0.00
2019-02-12T03:52:37.328Z,0.00
2019-02-12T03:55:08.971Z,-0.10
2019-02-12T03:57:39.685Z,0.00
2019-02-12T04:00:14.598Z,-0.10
2019-02-12T04:03:02.229Z,0.00
2019-02-12T04:05:32.895Z,0.00
2019-02-12T04:08:05.038Z,-0.10
2019-02-12T04:10:35.578Z,-0.10
2019-02-12T04:13:06.216Z,-0.10
2019-02-12T04:15:36.670Z,-0.10
2019-02-12T04:18:07.264Z,-0.10
2019-02-12T04:20:37.787Z,-0.10
2019-02-12T04:23:08.330Z,-0.20
2019-02-12T04:25:40.369Z,-0.20
2019-02-12T04:28:10.910Z,-0.20
2019-02-12T04:30:41.764Z,-0.20
2019-02-12T04:33:13.452Z,-0.20
2019-02-12T04:35:44.276Z,-0.30
2019-02-12T04:38:15.167Z,-0.20
2019-02-12T04:40:45.960Z,-0.30
2019-02-12T04:43:16.721Z,-0.30
2019-02-12T04:45:48.022Z,-0.30
2019-02-12T04:48:19.164Z,-0.20
2019-02-12T04:50:49.706Z,-0.20
2019-02-12T04:53:20.236Z,-0.20
2019-02-12T04:55:50.783Z,-0.20
2019-02-12T04:58:21.337Z,-0.20
2019-02-12T05:00:51.917Z,-0.20
2019-02-12T05:03:22.886Z,-0.20
2019-02-12T05:05:53.369Z,-0.30
2019-02-12T05:08:24.010Z,-0.30
2019-02-12T05:10:59.439Z,-0.30
2019-02-12T05:13:29.950Z,-0.30
2019-02-12T05:16:00.796Z,-0.30
2019-02-12T05:18:31.487Z,-0.30
2019-02-12T05:21:01.996Z,-0.30
2019-02-12T05:23:32.537Z,-0.30
2019-02-12T05:26:03.103Z,-0.30
2019-02-12T05:28:33.628Z,-0.30
2019-02-12T05:31:04.152Z,-0.30
2019-02-12T05:33:34.684Z,-0.30
2019-02-12T05:36:05.596Z,-0.30
2019-02-12T05:38:36.273Z,-0.30
2019-02-12T05:41:06.803Z,-0.30
2019-02-12T05:43:37.343Z,-0.40
2019-02-12T05:46:07.872Z,-0.40
2019-02-12T05:48:38.443Z,-0.30
2019-02-12T05:51:08.953Z,-0.30
2019-02-12T05:53:39.592Z,-0.30
2019-02-12T05:56:10.187Z,-0.30
2019-02-12T05:58:40.686Z,-0.30
2019-02-12T06:01:11.663Z,-0.30
2019-02-12T06:03:42.174Z,-0.20
2019-02-12T06:06:12.738Z,-0.30
2019-02-12T06:08:43.237Z,-0.30
2019-02-12T06:11:13.869Z,-0.30
2019-02-12T06:13:44.367Z,-0.30
2019-02-12T06:16:14.878Z,-0.20
2019-02-12T06:18:45.367Z,-0.30
2019-02-12T06:21:15.896Z,-0.30
2019-02-12T06:23:46.402Z,-0.30
2019-02-12T06:26:16.891Z,-0.30
2019-02-12T06:28:47.410Z,-0.30
2019-02-12T06:31:17.927Z,-0.30
2019-02-12T06:33:48.453Z,-0.30
2019-02-12T06:36:18.919Z,-0.30
2019-02-12T06:38:49.453Z,-0.30
2019-02-12T06:41:19.921Z,-0.30
2019-02-12T06:43:50.438Z,-0.30
2019-02-12T06:46:20.919Z,-0.30
2019-02-12T06:48:51.455Z,-0.30
2019-02-12T06:51:22.035Z,-0.20
2019-02-12T06:53:52.531Z,-0.20
2019-02-12T06:56:23.070Z,-0.10
2019-02-12T06:58:53.587Z,-0.10
2019-02-12T07:01:24.107Z,-0.20
2019-02-12T07:04:02.822Z,-0.10
2019-02-12T07:06:55.872Z,-0.10
2019-02-12T07:09:34.512Z,-0.10
2019-02-12T07:12:57.999Z,0.00
2019-02-12T07:16:14.066Z,0.20
2019-02-12T07:19:33.264Z,0.70
2019-02-12T07:22:47.971Z,1.10
2019-02-12T07:25:55.353Z,1.50
2019-02-12T07:28:51.921Z,1.80
2019-02-12T07:32:04.783Z,2.30
2019-02-12T07:35:13.492Z,2.90
2019-02-12T07:38:11.791Z,3.70
2019-02-12T07:41:07.670Z,4.70
2019-02-12T07:44:26.823Z,5.80
2019-02-12T07:47:47.508Z,6.80
2019-02-12T07:50:32.342Z,8.00
2019-02-12T07:53:50.253Z,9.00
2019-02-12T07:56:38.211Z,9.90
2019-02-12T07:59:19.860Z,10.80
2019-02-12T08:02:43.128Z,11.50
2019-02-12T08:05:32.201Z,12.00
2019-02-12T08:08:57.393Z,12.70
2019-02-12T08:11:54.754Z,13.10
2019-02-12T08:14:38.411Z,13.70
2019-02-12T08:17:47.651Z,14.20
2019-02-12T08:20:53.476Z,14.50
2019-02-12T08:24:06.195Z,14.90
2019-02-12T08:27:23.551Z,15.40
2019-02-12T08:30:34.551Z,15.70
2019-02-12T08:33:43.235Z,16.10
2019-02-12T08:36:43.057Z,16.40
2019-02-12T08:39:47.135Z,16.80
2019-02-12T08:43:00.667Z,17.10
2019-02-12T08:46:07.733Z,17.30
2019-02-12T08:49:22.175Z,17.60
2019-02-12T08:52:57.651Z,17.80
2019-02-12T08:56:18.351Z,18.10
2019-02-12T08:59:17.243Z,18.40
2019-02-12T09:02:00.437Z,18.80
2019-02-12T09:05:11.679Z,18.80
2019-02-12T09:07:54.641Z,18.90
2019-02-12T09:10:59.978Z,19.20
2019-02-12T09:13:43.632Z,19.30
2019-02-12T09:17:00.128Z,19.40
2019-02-12T09:19:58.997Z,19.70
2019-02-12T09:23:06.891Z,20.10
2019-02-12T09:26:13.539Z,20.20
2019-02-12T09:29:12.410Z,20.10
2019-02-12T09:32:31.530Z,20.40
2019-02-12T09:35:32.539Z,20.50
2019-02-12T09:38:25.659Z,20.80
2019-02-12T09:41:29.856Z,21.00
2019-02-12T09:44:42.975Z,21.00
2019-02-12T09:48:07.963Z,21.00
2019-02-12T09:51:13.809Z,21.10
2019-02-12T09:54:15.059Z,21.10
2019-02-12T09:57:44.648Z,20.80
2019-02-12T10:00:26.226Z,20.70
2019-02-12T10:03:36.195Z,20.60
2019-02-12T10:06:50.933Z,20.60
2019-02-12T10:09:49.947Z,19.90
2019-02-12T10:12:54.567Z,19.50
2019-02-12T10:16:03.251Z,19.40
2019-02-12T10:19:11.176Z,19.30
2019-02-12T10:22:12.989Z,18.90
2019-02-12T10:25:03.197Z,18.60
2019-02-12T10:28:32.795Z,18.50
2019-02-12T10:31:24.874Z,17.90
2019-02-12T10:33:55.404Z,17.60
2019-02-12T10:36:25.915Z,17.30
2019-02-12T10:38:56.416Z,16.90
2019-02-12T10:41:26.995Z,16.30
2019-02-12T10:44:02.362Z,16.00
2019-02-12T10:46:32.847Z,16.00
2019-02-12T10:49:03.379Z,15.80
2019-02-12T10:51:33.887Z,15.40
2019-02-12T10:54:04.546Z,15.20
2019-02-12T10:56:35.021Z,15.20
2019-02-12T10:59:05.492Z,15.50
2019-02-12T11:01:36.286Z,15.40
2019-02-12T11:04:06.879Z,15.10
2019-02-12T11:06:37.387Z,14.30
2019-02-12T11:09:08.469Z,13.60
2019-02-12T11:11:38.942Z,12.90
2019-02-12T11:14:09.388Z,12.20
2019-02-12T11:16:39.864Z,11.80
2019-02-12T11:19:10.368Z,11.20
2019-02-12T11:21:40.893Z,10.70
2019-02-12T11:24:11.370Z,10.30
2019-02-12T11:26:41.834Z,10.00
2019-02-12T11:29:13.246Z,9.70
2019-02-12T11:31:43.638Z,9.70
2019-02-12T11:34:14.131Z,9.50
2019-02-12T11:36:44.595Z,9.60
2019-02-12T11:39:15.082Z,9.60
2019-02-12T11:41:45.546Z,9.50
2019-02-12T11:44:16.047Z,9.50
2019-02-12T11:46:47.287Z,9.10
2019-02-12T11:49:17.742Z,8.90
2019-02-12T11:51:48.290Z,8.70
2019-02-12T11:54:18.702Z,8.70
2019-02-12T11:56:49.082Z,8.80
2019-02-12T11:59:19.575Z,9.10
2019-02-12T12:01:50.043Z,9.00
2019-02-12T12:04:20.565Z,8.90
2019-02-12T12:06:51.016Z,8.90
2019-02-12T12:09:21.674Z,9.00
2019-02-12T12:11:52.148Z,9.30
2019-02-12T12:14:22.611Z,9.50
2019-02-12T12:16:53.078Z,9.80
2019-02-12T12:19:23.544Z,10.30
2019-02-12T12:21:54.018Z,11.10
2019-02-12T12:24:24.514Z,12.20
2019-02-12T12:26:55.025Z,12.50
2019-02-12T12:29:25.591Z,12.40
2019-02-12T12:31:56.071Z,12.20
2019-02-12T12:34:26.562Z,12.00
2019-02-12T12:36:57.027Z,11.20
2019-02-12T12:39:27.511Z,10.60
2019-02-12T12:41:57.979Z,9.90
2019-02-12T12:44:28.354Z,9.30
2019-02-12T12:46:58.871Z,8.90
2019-02-12T12:49:30.748Z,8.60
2019-02-12T12:52:01.205Z,8.50
2019-02-12T12:54:31.686Z,8.10
2019-02-12T12:57:02.250Z,7.80
2019-02-12T12:59:32.698Z,7.70
2019-02-12T13:02:03.150Z,7.60
2019-02-12T13:04:33.553Z,7.60
2019-02-12T13:07:04.013Z,7.80
2019-02-12T13:09:34.415Z,7.70
2019-02-12T13:12:04.867Z,7.70
2019-02-12T13:14:35.472Z,7.60
2019-02-12T13:17:05.954Z,7.70
2019-02-12T13:19:36.419Z,8.00
2019-02-12T13:22:06.899Z,8.40
2019-02-12T13:24:37.372Z,8.80
2019-02-12T13:27:07.855Z,8.90
2019-02-12T13:29:38.306Z,9.60
2019-02-12T13:32:08.674Z,10.20
2019-02-12T13:34:43.273Z,10.40
2019-02-12T13:37:13.754Z,10.60
2019-02-12T13:39:44.222Z,10.20
2019-02-12T13:42:14.696Z,9.90
2019-02-12T13:44:45.159Z,9.50
2019-02-12T13:47:15.643Z,8.70
2019-02-12T13:49:46.103Z,8.00
2019-02-12T13:52:16.579Z,7.40
2019-02-12T13:54:47.067Z,6.80
2019-02-12T13:57:17.468Z,6.40
2019-02-12T13:59:47.962Z,6.00
2019-02-12T14:02:18.447Z,5.80
2019-02-12T14:04:48.823Z,5.70
2019-02-12T14:07:19.307Z,5.60
2019-02-12T14:09:49.803Z,5.50
2019-02-12T14:12:20.259Z,5.60
2019-02-12T14:14:50.651Z,5.40
2019-02-12T14:17:21.055Z,5.20
2019-02-12T14:19:53.826Z,5.00
2019-02-12T14:22:24.311Z,4.70
2019-02-12T14:24:54.825Z,4.60
2019-02-12T14:27:25.236Z,4.50
2019-02-12T14:29:55.741Z,4.30
2019-02-12T14:32:26.198Z,4.20
2019-02-12T14:34:56.803Z,4.20
2019-02-12T14:37:27.321Z,4.10
2019-02-12T14:39:57.778Z,4.10
2019-02-12T14:42:28.262Z,4.10
2019-02-12T14:44:58.727Z,4.00
2019-02-12T14:47:29.203Z,4.00
2019-02-12T14:49:59.658Z,4.00
2019-02-12T14:52:30.151Z,3.90
2019-02-12T14:55:00.625Z,3.80
2019-02-12T14:57:31.096Z,3.70
2019-02-12T15:00:01.692Z,3.60
2019-02-12T15:02:32.144Z,3.60
2019-02-12T15:05:02.669Z,3.60
2019-02-12T15:07:33.190Z,3.60
2019-02-12T15:10:03.584Z,3.60
2019-02-12T15:12:34.055Z,3.60
2019-02-12T15:15:04.879Z,3.60
2019-02-12T15:17:35.367Z,3.50
2019-02-12T15:20:07.443Z,3.40
2019-02-12T15:22:38.252Z,3.40
2019-02-12T15:25:08.827Z,3.30
2019-02-12T15:27:39.375Z,3.30
2019-02-12T15:30:11.603Z,3.30
2019-02-12T15:32:42.082Z,3.40
2019-02-12T15:35:12.654Z,3.30
2019-02-12T15:37:43.143Z,3.20
2019-02-12T15:40:14.364Z,3.30
2019-02-12T15:42:44.779Z,3.30
2019-02-12T15:45:16.414Z,3.40
2019-02-12T15:47:46.818Z,3.40
2019-02-12T15:50:17.274Z,3.60
2019-02-12T15:52:47.759Z,3.60
2019-02-12T15:55:18.246Z,3.70
2019-02-12T15:57:48.741Z,3.80
2019-02-12T16:00:21.238Z,3.80
2019-02-12T16:02:51.714Z,3.90
2019-02-12T16:05:22.210Z,4.00
2019-02-12T16:07:52.707Z,4.00
2019-02-12T16:10:23.302Z,4.10
2019-02-12T16:12:53.768Z,4.10
2019-02-12T16:15:24.836Z,4.10
2019-02-12T16:17:55.435Z,4.10
2019-02-12T16:20:25.823Z,4.10
2019-02-12T16:22:56.287Z,4.00
2019-02-12T16:25:26.779Z,3.90
2019-02-12T16:27:57.243Z,3.80
2019-02-12T16:30:27.753Z,3.60
2019-02-12T16:32:58.215Z,3.60
2019-02-12T16:35:28.704Z,3.60
2019-02-12T16:37:59.215Z,3.70
2019-02-12T16:40:29.787Z,3.70
2019-02-12T16:43:00.297Z,3.70
2019-02-12T16:45:48.765Z,3.60
2019-02-12T16:48:19.322Z,3.70
2019-02-12T16:50:49.822Z,3.60
2019-02-12T16:53:20.329Z,3.60
2019-02-12T16:55:50.902Z,3.60
2019-02-12T16:58:21.416Z,3.60
2019-02-12T17:00:51.943Z,3.60
2019-02-12T17:03:22.852Z,3.50
2019-02-12T17:05:53.349Z,3.40
2019-02-12T17:08:23.839Z,3.20
2019-02-12T17:10:54.330Z,3.20
2019-02-12T17:13:27.348Z,3.10
2019-02-12T17:15:57.902Z,3.00
2019-02-12T17:18:28.386Z,2.90
2019-02-12T17:20:58.848Z,2.80
2019-02-12T17:23:29.356Z,2.70
2019-02-12T17:25:59.863Z,2.60
2019-02-12T17:28:30.371Z,2.60
2019-02-12T17:31:00.838Z,2.60
2019-02-12T17:33:31.388Z,2.50
2019-02-12T17:36:01.867Z,2.50
2019-02-12T17:38:32.309Z,2.40
2019-02-12T17:41:02.786Z,2.40
2019-02-12T17:43:33.303Z,2.30
2019-02-12T17:46:03.759Z,2.30
2019-02-12T17:48:34.164Z,2.40
2019-02-12T17:51:04.562Z,2.40
2019-02-12T17:53:35.395Z,2.40
2019-02-12T17:56:05.799Z,2.50
2019-02-12T17:58:36.275Z,2.50
2019-02-12T18:01:06.775Z,2.50
2019-02-12T18:03:37.271Z,2.40
2019-02-12T18:06:07.831Z,2.40
2019-02-12T18:08:38.237Z,2.30
2019-02-12T18:11:08.736Z,2.20
2019-02-12T18:13:39.212Z,2.20
2019-02-12T18:16:11.198Z,2.20
2019-02-12T18:18:41.767Z,2.20
2019-02-12T18:21:12.158Z,2.10
2019-02-12T18:23:42.616Z,2.20
2019-02-12T18:26:13.112Z,2.20
2019-02-12T18:28:43.574Z,2.30
2019-02-12T18:31:14.975Z,2.20
2019-02-12T18:33:45.518Z,2.20
2019-02-12T18:36:15.929Z,2.20
2019-02-12T18:38:46.386Z,2.30
2019-02-12T18:41:16.879Z,2.30
2019-02-12T18:43:47.631Z,2.20
2019-02-12T18:46:18.239Z,2.20
2019-02-12T18:48:48.730Z,2.10
2019-02-12T18:51:19.126Z,2.10
2019-02-12T18:53:49.585Z,2.20
2019-02-12T18:56:20.679Z,2.30
2019-02-12T18:58:51.198Z,2.30
2019-02-12T19:01:21.712Z,2.30
2019-02-12T19:03:52.508Z,2.30
2019-02-12T19:06:22.999Z,2.30
2019-02-12T19:08:53.495Z,2.40
2019-02-12T19:11:24.023Z,2.30
2019-02-12T19:13:54.784Z,2.40
2019-02-12T19:16:25.335Z,2.50
2019-02-12T19:18:57.373Z,2.60
2019-02-12T19:21:27.855Z,2.60
2019-02-12T19:23:58.537Z,2.60
2019-02-12T19:26:29.045Z,2.70
2019-02-12T19:28:59.551Z,2.70
2019-02-12T19:31:30.051Z,2.80
2019-02-12T19:34:00.536Z,2.80
2019-02-12T19:36:31.028Z,2.90
2019-02-12T19:39:01.492Z,2.90
2019-02-12T19:41:31.984Z,3.00
2019-02-12T19:44:02.467Z,3.00
2019-02-12T19:46:33.039Z,3.10
2019-02-12T19:49:03.513Z,3.10
2019-02-12T19:51:34.013Z,3.00
2019-02-12T19:54:04.507Z,3.00
2019-02-12T19:56:34.991Z,3.00
2019-02-12T19:59:05.488Z,3.00
2019-02-12T20:01:35.972Z,3.00
2019-02-12T20:04:06.791Z,2.90
2019-02-12T20:06:37.295Z,2.90
2019-02-12T20:09:14.132Z,2.90
2019-02-12T20:11:44.625Z,2.90
2019-02-12T20:14:15.436Z,2.80
2019-02-12T20:16:45.927Z,2.80
2019-02-12T20:19:16.405Z,2.80
2019-02-12T20:21:47.869Z,2.80
2019-02-12T20:24:18.370Z,2.70
2019-02-12T20:26:48.867Z,2.70
2019-02-12T20:29:19.714Z,2.70
2019-02-12T20:31:50.230Z,2.60
2019-02-12T20:34:21.589Z,2.70
2019-02-12T20:36:52.238Z,2.70
2019-02-12T20:39:22.880Z,2.70
2019-02-12T20:41:53.622Z,2.80
2019-02-12T20:44:24.178Z,2.80
2019-02-12T20:46:54.751Z,2.70
2019-02-12T20:49:25.442Z,2.70
2019-02-12T20:51:55.923Z,2.60
2019-02-12T20:54:26.423Z,2.60
2019-02-12T20:56:56.938Z,2.60
2019-02-12T20:59:27.435Z,2.50
2019-02-12T21:01:57.938Z,2.50
2019-02-12T21:04:28.435Z,2.50
2019-02-12T21:06:58.975Z,2.40
2019-02-12T21:09:29.447Z,2.50
2019-02-12T21:11:59.939Z,2.40
2019-02-12T21:14:30.443Z,2.30
2019-02-12T21:17:00.927Z,2.30
2019-02-12T21:19:31.447Z,2.30
2019-02-12T21:22:01.945Z,2.30
2019-02-12T21:24:33.287Z,2.30
2019-02-12T21:27:03.781Z,2.30
2019-02-12T21:29:34.265Z,2.30
2019-02-12T21:32:04.822Z,2.40
2019-02-12T21:34:35.295Z,2.40
2019-02-12T21:37:06.111Z,2.30
2019-02-12T21:39:36.626Z,2.10
2019-02-12T21:42:07.135Z,2.10
2019-02-12T21:44:37.677Z,2.10
2019-02-12T21:47:08.164Z,2.10
2019-02-12T21:49:38.663Z,2.00
2019-02-12T21:52:09.417Z,2.00
2019-02-12T21:54:39.870Z,2.00
2019-02-12T21:57:10.412Z,2.10
2019-02-12T21:59:40.895Z,2.10
2019-02-12T22:02:11.397Z,2.10
2019-02-12T22:04:41.943Z,2.10
2019-02-12T22:07:12.455Z,2.10
2019-02-12T22:09:43.130Z,2.00
2019-02-12T22:12:13.608Z,2.10
2019-02-12T22:14:44.100Z,2.00
2019-02-12T22:17:14.963Z,2.00
2019-02-12T22:19:45.467Z,1.90
2019-02-12T22:22:16.480Z,1.90
2019-02-12T22:24:46.983Z,2.00
2019-02-12T22:27:17.823Z,2.10
2019-02-12T22:29:48.310Z,2.10
2019-02-12T22:32:18.807Z,2.10
2019-02-12T22:34:49.286Z,2.10
2019-02-12T22:37:19.772Z,2.10
2019-02-12T22:39:50.255Z,2.20
2019-02-12T22:42:20.712Z,2.20
2019-02-12T22:44:51.226Z,2.20
2019-02-12T22:47:23.631Z,2.20
2019-02-12T22:49:54.162Z,2.10
2019-02-12T22:52:24.668Z,2.20
2019-02-12T22:54:55.138Z,2.20
2019-02-12T22:57:25.766Z,2.30
2019-02-12T22:59:56.292Z,2.20
2019-02-12T23:02:26.768Z,2.30
2019-02-12T23:04:57.511Z,2.30
2019-02-12T23:07:28.004Z,2.30
2019-02-12T23:09:58.517Z,2.30
2019-02-12T23:12:29.039Z,2.30
2019-02-12T23:14:59.539Z,2.30
2019-02-12T23:17:30.027Z,2.30
2019-02-12T23:20:00.536Z,2.40
2019-02-12T23:22:31.026Z,2.40
2019-02-12T23:25:01.610Z,2.30
2019-02-12T23:31:13.344Z,2.40
2019-02-12T23:33:43.810Z,2.40
2019-02-12T23:36:14.315Z,2.40
2019-02-12T23:38:44.929Z,2.50
2019-02-12T23:41:16.323Z,2.60
2019-02-12T23:43:46.826Z,2.60
2019-02-12T23:46:17.319Z,2.60
2019-02-12T23:48:47.788Z,2.60
2019-02-12T23:51:18.311Z,2.60
2019-02-12T23:53:48.801Z,2.60
2019-02-12T23:56:19.344Z,2.70
2019-02-12T23:58:49.919Z,2.70
